sensor_id;sensor_type;location;lat;lon;timestamp;pressure;altitude;pressure_sealevel;temperature;humidity
43503;BME280;29098;48.184;16.298;2023-02-08T00:01:09;101725.41;;;-4.40;82.79
43503;BME280;29098;48.184;16.298;2023-02-08T00:03:35;101723.66;;;-4.37;82.82
43503;BME280;29098;48.184;16.298;2023-02-08T00:06:01;101724.53;;;-4.38;82.86
43503;BME280;29098;48.184;16.298;2023-02-08T00:08:27;101728.22;;;-4.54;83.60
43503;BME280;29098;48.184;16.298;2023-02-08T00:10:52;101734.06;;;-4.44;82.89
43503;BME280;29098;48.184;16.298;2023-02-08T00:13:18;101748.75;;;-4.50;83.22
43503;BME280;29098;48.184;16.298;2023-02-08T00:15:44;101747.09;;;-4.53;82.71
43503;BME280;29098;48.184;16.298;2023-02-08T00:18:10;101747.00;;;-4.48;83.04
43503;BME280;29098;48.184;16.298;2023-02-08T00:20:38;101750.53;;;-4.52;83.19
43503;BME280;29098;48.184;16.298;2023-02-08T00:23:04;101752.38;;;-4.61;83.25
43503;BME280;29098;48.184;16.298;2023-02-08T00:25:30;101743.75;;;-4.58;83.41
43503;BME280;29098;48.184;16.298;2023-02-08T00:27:55;101742.91;;;-4.60;83.39
43503;BME280;29098;48.184;16.298;2023-02-08T00:30:20;101744.75;;;-4.69;83.67
43503;BME280;29098;48.184;16.298;2023-02-08T00:32:46;101753.28;;;-4.67;83.57
43503;BME280;29098;48.184;16.298;2023-02-08T00:35:11;101752.38;;;-4.61;83.77
43503;BME280;29098;48.184;16.298;2023-02-08T00:37:36;101751.00;;;-4.84;84.05
43503;BME280;29098;48.184;16.298;2023-02-08T00:40:02;101750.13;;;-4.84;84.52
43503;BME280;29098;48.184;16.298;2023-02-08T00:42:30;101742.41;;;-4.84;84.08
43503;BME280;29098;48.184;16.298;2023-02-08T00:44:56;101743.13;;;-4.76;83.64
43503;BME280;29098;48.184;16.298;2023-02-08T00:47:21;101751.56;;;-4.64;83.22
43503;BME280;29098;48.184;16.298;2023-02-08T00:49:47;101739.69;;;-4.75;83.70
43503;BME280;29098;48.184;16.298;2023-02-08T00:52:12;101749.31;;;-4.86;83.84
43503;BME280;29098;48.184;16.298;2023-02-08T00:54:37;101733.88;;;-4.86;83.84
43503;BME280;29098;48.184;16.298;2023-02-08T00:57:03;101736.44;;;-4.86;84.40
43503;BME280;29098;48.184;16.298;2023-02-08T00:59:29;101730.50;;;-4.91;84.62
43503;BME280;29098;48.184;16.298;2023-02-08T01:01:54;101739.91;;;-4.90;84.17
43503;BME280;29098;48.184;16.298;2023-02-08T01:04:19;101736.44;;;-4.86;84.24
43503;BME280;29098;48.184;16.298;2023-02-08T01:06:45;101737.97;;;-4.73;83.55
43503;BME280;29098;48.184;16.298;2023-02-08T01:09:10;101736.47;;;-4.89;83.59
43503;BME280;29098;48.184;16.298;2023-02-08T01:11:36;101746.00;;;-4.96;84.20
43503;BME280;29098;48.184;16.298;2023-02-08T01:14:02;101739.03;;;-4.88;83.65
43503;BME280;29098;48.184;16.298;2023-02-08T01:16:31;101741.69;;;-4.94;83.75
43503;BME280;29098;48.184;16.298;2023-02-08T01:18:57;101755.56;;;-5.04;84.26
43503;BME280;29098;48.184;16.298;2023-02-08T01:21:24;101753.78;;;-5.01;84.74
43503;BME280;29098;48.184;16.298;2023-02-08T01:23:49;101759.69;;;-4.92;84.33
43503;BME280;29098;48.184;16.298;2023-02-08T01:26:15;101761.50;;;-4.99;84.32
43503;BME280;29098;48.184;16.298;2023-02-08T01:28:41;101766.66;;;-5.01;84.59
43503;BME280;29098;48.184;16.298;2023-02-08T01:31:08;101758.03;;;-4.97;84.61
43503;BME280;29098;48.184;16.298;2023-02-08T01:33:33;101764.97;;;-5.02;84.55
43503;BME280;29098;48.184;16.298;2023-02-08T01:35:59;101764.22;;;-5.10;85.23
43503;BME280;29098;48.184;16.298;2023-02-08T01:38:25;101761.56;;;-5.04;85.00
43503;BME280;29098;48.184;16.298;2023-02-08T01:40:50;101758.31;;;-5.18;85.49
43503;BME280;29098;48.184;16.298;2023-02-08T01:43:28;101756.56;;;-5.15;85.58
43503;BME280;29098;48.184;16.298;2023-02-08T01:45:54;101759.16;;;-5.16;85.57
43503;BME280;29098;48.184;16.298;2023-02-08T01:50:53;101760.84;;;-5.15;85.99
43503;BME280;29098;48.184;16.298;2023-02-08T01:53:20;101765.22;;;-5.22;86.00
43503;BME280;29098;48.184;16.298;2023-02-08T01:55:49;101766.13;;;-5.25;86.38
43503;BME280;29098;48.184;16.298;2023-02-08T01:58:16;101766.13;;;-5.28;86.38
43503;BME280;29098;48.184;16.298;2023-02-08T02:00:43;101772.22;;;-5.32;86.29
43503;BME280;29098;48.184;16.298;2023-02-08T02:03:08;101772.25;;;-5.37;86.50
43503;BME280;29098;48.184;16.298;2023-02-08T02:05:37;101766.25;;;-5.34;86.72
43503;BME280;29098;48.184;16.298;2023-02-08T02:08:03;101760.38;;;-5.45;87.38
43503;BME280;29098;48.184;16.298;2023-02-08T02:10:30;101748.19;;;-5.29;86.84
43503;BME280;29098;48.184;16.298;2023-02-08T02:12:57;101750.00;;;-5.38;86.96
43503;BME280;29098;48.184;16.298;2023-02-08T02:15:26;101753.47;;;-5.43;86.88
43503;BME280;29098;48.184;16.298;2023-02-08T02:17:51;101762.91;;;-5.42;86.95
43503;BME280;29098;48.184;16.298;2023-02-08T02:20:20;101762.28;;;-5.63;87.46
43503;BME280;29098;48.184;16.298;2023-02-08T02:31:02;101769.75;;;-5.41;86.71
43503;BME280;29098;48.184;16.298;2023-02-08T02:33:47;101771.53;;;-5.46;86.76
43503;BME280;29098;48.184;16.298;2023-02-08T02:36:29;101774.09;;;-5.46;86.57
43503;BME280;29098;48.184;16.298;2023-02-08T02:41:51;101777.94;;;-5.86;88.11
43503;BME280;29098;48.184;16.298;2023-02-08T02:49:52;101760.00;;;-5.91;88.57
43503;BME280;29098;48.184;16.298;2023-02-08T02:52:22;101764.31;;;-5.95;88.86
43503;BME280;29098;48.184;16.298;2023-02-08T02:54:52;101767.66;;;-5.85;88.86
43503;BME280;29098;48.184;16.298;2023-02-08T02:57:23;101771.91;;;-5.81;88.72
43503;BME280;29098;48.184;16.298;2023-02-08T02:59:50;101769.44;;;-5.93;89.08
43503;BME280;29098;48.184;16.298;2023-02-08T03:02:15;101766.84;;;-5.90;89.10
43503;BME280;29098;48.184;16.298;2023-02-08T03:20:17;101777.34;;;-6.10;89.74
43503;BME280;29098;48.184;16.298;2023-02-08T03:22:53;101775.69;;;-6.16;90.40
43503;BME280;29098;48.184;16.298;2023-02-08T03:25:26;101779.00;;;-6.05;90.11
43503;BME280;29098;48.184;16.298;2023-02-08T03:28:04;101772.16;;;-6.06;90.13
43503;BME280;29098;48.184;16.298;2023-02-08T03:30:33;101765.19;;;-5.97;89.80
43503;BME280;29098;48.184;16.298;2023-02-08T03:33:06;101768.59;;;-5.92;89.48
43503;BME280;29098;48.184;16.298;2023-02-08T03:35:36;101772.16;;;-6.02;89.54
43503;BME280;29098;48.184;16.298;2023-02-08T03:38:12;101780.66;;;-6.00;89.47
43503;BME280;29098;48.184;16.298;2023-02-08T03:40:50;101773.06;;;-6.08;89.82
43503;BME280;29098;48.184;16.298;2023-02-08T03:43:19;101781.66;;;-6.11;89.91
43503;BME280;29098;48.184;16.298;2023-02-08T03:45:48;101782.59;;;-6.24;90.46
43503;BME280;29098;48.184;16.298;2023-02-08T03:48:15;101779.13;;;-6.20;90.20
43503;BME280;29098;48.184;16.298;2023-02-08T03:50:42;101784.22;;;-6.11;89.69
43503;BME280;29098;48.184;16.298;2023-02-08T03:53:10;101776.50;;;-6.12;89.83
43503;BME280;29098;48.184;16.298;2023-02-08T03:55:37;101773.06;;;-6.13;89.75
43503;BME280;29098;48.184;16.298;2023-02-08T04:00:44;101775.50;;;-6.00;88.33
43503;BME280;29098;48.184;16.298;2023-02-08T04:03:13;101785.09;;;-6.16;89.53
43503;BME280;29098;48.184;16.298;2023-02-08T04:05:41;101782.53;;;-6.16;89.46
43503;BME280;29098;48.184;16.298;2023-02-08T04:08:06;101775.78;;;-6.24;89.33
43503;BME280;29098;48.184;16.298;2023-02-08T04:10:32;101766.38;;;-6.28;89.47
43503;BME280;29098;48.184;16.298;2023-02-08T04:12:57;101767.22;;;-6.26;89.58
43503;BME280;29098;48.184;16.298;2023-02-08T04:15:23;101782.56;;;-6.21;89.10
43503;BME280;29098;48.184;16.298;2023-02-08T04:17:51;101783.34;;;-6.10;88.87
43503;BME280;29098;48.184;16.298;2023-02-08T04:20:16;101793.59;;;-6.08;88.65
43503;BME280;29098;48.184;16.298;2023-02-08T04:22:41;101789.41;;;-6.20;88.85
43503;BME280;29098;48.184;16.298;2023-02-08T04:25:07;101789.47;;;-6.29;89.25
43503;BME280;29098;48.184;16.298;2023-02-08T04:27:32;101781.81;;;-6.33;89.36
43503;BME280;29098;48.184;16.298;2023-02-08T04:29:58;101773.22;;;-6.25;89.27
43503;BME280;29098;48.184;16.298;2023-02-08T04:32:23;101768.94;;;-6.29;89.54
43503;BME280;29098;48.184;16.298;2023-02-08T04:34:48;101768.00;;;-6.17;89.38
43503;BME280;29098;48.184;16.298;2023-02-08T04:37:14;101768.81;;;-6.14;88.73
43503;BME280;29098;48.184;16.298;2023-02-08T04:39:39;101780.00;;;-6.18;88.44
43503;BME280;29098;48.184;16.298;2023-02-08T04:42:04;101773.06;;;-6.10;88.63
43503;BME280;29098;48.184;16.298;2023-02-08T04:44:30;101765.38;;;-6.13;88.12
43503;BME280;29098;48.184;16.298;2023-02-08T04:46:57;101765.50;;;-6.24;88.15
43503;BME280;29098;48.184;16.298;2023-02-08T04:49:22;101764.59;;;-6.18;87.95
43503;BME280;29098;48.184;16.298;2023-02-08T04:51:48;101770.50;;;-6.13;87.44
43503;BME280;29098;48.184;16.298;2023-02-08T04:54:13;101775.69;;;-6.16;88.05
43503;BME280;29098;48.184;16.298;2023-02-08T04:56:38;101775.72;;;-6.21;88.22
43503;BME280;29098;48.184;16.298;2023-02-08T04:59:04;101768.16;;;-6.38;88.52
43503;BME280;29098;48.184;16.298;2023-02-08T05:01:29;101773.22;;;-6.25;88.58
43503;BME280;29098;48.184;16.298;2023-02-08T05:03:54;101776.78;;;-6.45;89.41
43503;BME280;29098;48.184;16.298;2023-02-08T05:06:20;101783.53;;;-6.30;89.20
43503;BME280;29098;48.184;16.298;2023-02-08T05:08:45;101780.16;;;-6.38;89.63
43503;BME280;29098;48.184;16.298;2023-02-08T05:11:10;101781.19;;;-6.63;90.16
43503;BME280;29098;48.184;16.298;2023-02-08T05:13:38;101782.00;;;-6.57;90.03
43503;BME280;29098;48.184;16.298;2023-02-08T05:16:03;101786.28;;;-6.58;90.68
43503;BME280;29098;48.184;16.298;2023-02-08T05:18:29;101782.06;;;-6.62;90.33
43503;BME280;29098;48.184;16.298;2023-02-08T05:20:58;101781.97;;;-6.56;89.70
43503;BME280;29098;48.184;16.298;2023-02-08T05:23:24;101789.75;;;-6.65;90.22
43503;BME280;29098;48.184;16.298;2023-02-08T05:25:49;101792.31;;;-6.65;90.01
43503;BME280;29098;48.184;16.298;2023-02-08T05:28:15;101795.00;;;-6.85;90.98
43503;BME280;29098;48.184;16.298;2023-02-08T05:30:40;101794.13;;;-6.86;91.00
43503;BME280;29098;48.184;16.298;2023-02-08T05:33:06;101789.94;;;-6.95;91.56
43503;BME280;29098;48.184;16.298;2023-02-08T05:35:31;101795.88;;;-6.85;91.04
43503;BME280;29098;48.184;16.298;2023-02-08T05:37:56;101800.09;;;-6.82;91.20
43503;BME280;29098;48.184;16.298;2023-02-08T05:40:22;101806.19;;;-6.96;91.17
43503;BME280;29098;48.184;16.298;2023-02-08T05:42:47;101814.75;;;-7.00;91.83
43503;BME280;29098;48.184;16.298;2023-02-08T05:45:13;101813.03;;;-7.03;91.95
43503;BME280;29098;48.184;16.298;2023-02-08T05:47:38;101817.31;;;-6.97;91.95
43503;BME280;29098;48.184;16.298;2023-02-08T05:50:04;101818.09;;;-6.85;91.12
43503;BME280;29098;48.184;16.298;2023-02-08T05:52:29;101823.28;;;-6.95;91.90
43503;BME280;29098;48.184;16.298;2023-02-08T05:54:55;101832.69;;;-7.00;91.94
43503;BME280;29098;48.184;16.298;2023-02-08T05:57:20;101827.53;;;-6.94;91.78
43503;BME280;29098;48.184;16.298;2023-02-08T05:59:45;101834.34;;;-6.90;91.17
43503;BME280;29098;48.184;16.298;2023-02-08T06:02:11;101837.81;;;-6.97;91.05
43503;BME280;29098;48.184;16.298;2023-02-08T06:04:36;101833.50;;;-6.92;91.47
43503;BME280;29098;48.184;16.298;2023-02-08T06:07:02;101831.81;;;-6.97;91.28
43503;BME280;29098;48.184;16.298;2023-02-08T06:09:27;101840.38;;;-6.97;91.27
43503;BME280;29098;48.184;16.298;2023-02-08T06:11:53;101841.22;;;-6.95;91.00
43503;BME280;29098;48.184;16.298;2023-02-08T06:14:18;101839.47;;;-6.90;90.83
43503;BME280;29098;48.184;16.298;2023-02-08T06:16:43;101841.19;;;-6.89;90.54
43503;BME280;29098;48.184;16.298;2023-02-08T06:19:09;101846.31;;;-6.92;90.51
43503;BME280;29098;48.184;16.298;2023-02-08T06:21:34;101850.63;;;-6.98;90.77
43503;BME280;29098;48.184;16.298;2023-02-08T06:24:00;101862.56;;;-6.91;90.70
43503;BME280;29098;48.184;16.298;2023-02-08T06:26:25;101864.25;;;-6.84;90.47
43503;BME280;29098;48.184;16.298;2023-02-08T06:28:50;101862.53;;;-6.82;90.22
43503;BME280;29098;48.184;16.298;2023-02-08T06:31:16;101860.81;;;-6.83;89.90
43503;BME280;29098;48.184;16.298;2023-02-08T06:33:41;101865.97;;;-6.89;89.78
43503;BME280;29098;48.184;16.298;2023-02-08T06:36:07;101871.16;;;-7.00;90.42
43503;BME280;29098;48.184;16.298;2023-02-08T06:38:32;101872.88;;;-7.00;90.76
43503;BME280;29098;48.184;16.298;2023-02-08T06:40:57;101868.63;;;-7.09;91.49
43503;BME280;29098;48.184;16.298;2023-02-08T06:43:23;101879.69;;;-6.96;91.12
43503;BME280;29098;48.184;16.298;2023-02-08T06:45:48;101876.91;;;-6.48;92.75
43503;BME280;29098;48.184;16.298;2023-02-08T06:48:14;101831.75;;;-6.83;90.51
43503;BME280;29098;48.184;16.298;2023-02-08T06:50:39;101876.03;;;-6.47;88.90
43503;BME280;29098;48.184;16.298;2023-02-08T06:53:05;101865.81;;;-6.56;89.59
43503;BME280;29098;48.184;16.298;2023-02-08T06:55:30;101861.47;;;-6.45;88.60
43503;BME280;29098;48.184;16.298;2023-02-08T06:57:56;101868.34;;;-6.47;88.89
43503;BME280;29098;48.184;16.298;2023-02-08T07:00:21;101866.66;;;-6.54;89.00
43503;BME280;29098;48.184;16.298;2023-02-08T07:02:46;101853.75;;;-6.43;88.37
43503;BME280;29098;48.184;16.298;2023-02-08T07:05:12;101844.38;;;-6.43;88.53
43503;BME280;29098;48.184;16.298;2023-02-08T07:07:38;101837.50;;;-6.41;88.07
43503;BME280;29098;48.184;16.298;2023-02-08T07:10:03;101830.63;;;-6.37;87.56
43503;BME280;29098;48.184;16.298;2023-02-08T07:12:31;101833.16;;;-6.36;87.40
43503;BME280;29098;48.184;16.298;2023-02-08T07:14:56;101838.38;;;-6.42;87.94
43503;BME280;29098;48.184;16.298;2023-02-08T07:17:25;101841.72;;;-6.34;87.81
43503;BME280;29098;48.184;16.298;2023-02-08T07:19:51;101835.69;;;-6.28;87.13
43503;BME280;29098;48.184;16.298;2023-02-08T07:22:16;101847.66;;;-6.28;87.14
43503;BME280;29098;48.184;16.298;2023-02-08T07:24:41;101847.66;;;-6.25;87.24
43503;BME280;29098;48.184;16.298;2023-02-08T07:27:07;101859.66;;;-6.27;87.69
43503;BME280;29098;48.184;16.298;2023-02-08T07:29:33;101863.88;;;-6.20;87.71
43503;BME280;29098;48.184;16.298;2023-02-08T07:31:59;101864.69;;;-6.15;87.48
43503;BME280;29098;48.184;16.298;2023-02-08T07:34:25;101875.78;;;-6.11;87.56
43503;BME280;29098;48.184;16.298;2023-02-08T07:36:52;101886.00;;;-6.02;87.64
43503;BME280;29098;48.184;16.298;2023-02-08T07:39:17;101888.31;;;-5.75;86.35
43503;BME280;29098;48.184;16.298;2023-02-08T07:41:43;101890.94;;;-5.80;86.63
43503;BME280;29098;48.184;16.298;2023-02-08T07:44:08;101873.75;;;-5.75;86.48
43503;BME280;29098;48.184;16.298;2023-02-08T07:46:34;101869.31;;;-5.59;86.31
43503;BME280;29098;48.184;16.298;2023-02-08T07:48:59;101862.47;;;-5.58;86.21
43503;BME280;29098;48.184;16.298;2023-02-08T07:51:24;101868.47;;;-5.59;86.79
43503;BME280;29098;48.184;16.298;2023-02-08T07:53:50;101865.59;;;-5.30;85.81
43503;BME280;29098;48.184;16.298;2023-02-08T07:56:15;101875.94;;;-5.33;85.87
43503;BME280;29098;48.184;16.298;2023-02-08T07:58:41;101875.88;;;-5.28;86.23
43503;BME280;29098;48.184;16.298;2023-02-08T08:01:07;101874.13;;;-5.25;85.91
43503;BME280;29098;48.184;16.298;2023-02-08T08:03:32;101884.25;;;-5.12;85.70
43503;BME280;29098;48.184;16.298;2023-02-08T08:05:58;101884.34;;;-5.18;85.63
43503;BME280;29098;48.184;16.298;2023-02-08T08:08:23;101886.00;;;-5.13;85.43
43503;BME280;29098;48.184;16.298;2023-02-08T08:10:49;101892.75;;;-5.04;84.93
43503;BME280;29098;48.184;16.298;2023-02-08T08:13:14;101885.00;;;-5.01;84.86
43503;BME280;29098;48.184;16.298;2023-02-08T08:15:40;101892.59;;;-4.90;84.56
43503;BME280;29098;48.184;16.298;2023-02-08T08:18:05;101895.16;;;-4.88;84.65
43503;BME280;29098;48.184;16.298;2023-02-08T08:20:31;101890.78;;;-4.83;84.92
43503;BME280;29098;48.184;16.298;2023-02-08T08:22:57;101891.47;;;-4.69;84.97
43503;BME280;29098;48.184;16.298;2023-02-08T08:25:22;101894.63;;;-4.49;84.23
43503;BME280;29098;48.184;16.298;2023-02-08T08:27:47;101853.66;;;-4.63;84.43
43503;BME280;29098;48.184;16.298;2023-02-08T08:30:13;101891.09;;;-4.41;84.10
43503;BME280;29098;48.184;16.298;2023-02-08T08:32:39;101885.06;;;-4.38;84.33
43503;BME280;29098;48.184;16.298;2023-02-08T08:35:05;101884.91;;;-4.27;83.99
43503;BME280;29098;48.184;16.298;2023-02-08T08:37:31;101888.25;;;-4.22;83.42
43503;BME280;29098;48.184;16.298;2023-02-08T08:39:57;101889.97;;;-4.22;83.65
43503;BME280;29098;48.184;16.298;2023-02-08T08:42:22;101889.13;;;-4.23;83.58
43503;BME280;29098;48.184;16.298;2023-02-08T08:44:48;101890.00;;;-4.24;83.80
43503;BME280;29098;48.184;16.298;2023-02-08T08:47:13;101878.66;;;-4.14;83.85
43503;BME280;29098;48.184;16.298;2023-02-08T08:49:39;101874.31;;;-4.08;83.94
43503;BME280;29098;48.184;16.298;2023-02-08T08:52:04;101876.47;;;-3.83;83.21
43503;BME280;29098;48.184;16.298;2023-02-08T08:54:32;101876.31;;;-3.74;82.96
43503;BME280;29098;48.184;16.298;2023-02-08T08:56:57;101874.41;;;-3.61;82.74
43503;BME280;29098;48.184;16.298;2023-02-08T08:59:23;101862.72;;;-3.34;81.81
43503;BME280;29098;48.184;16.298;2023-02-08T09:01:49;101861.66;;;-3.25;81.12
43503;BME280;29098;48.184;16.298;2023-02-08T09:04:14;101879.22;;;-2.98;80.23
43503;BME280;29098;48.184;16.298;2023-02-08T09:06:39;101889.19;;;-2.80;79.02
43503;BME280;29098;48.184;16.298;2023-02-08T09:09:04;101906.94;;;-2.64;79.44
43503;BME280;29098;48.184;16.298;2023-02-08T09:11:30;101921.41;;;-2.57;79.01
43503;BME280;29098;48.184;16.298;2023-02-08T09:13:57;101913.63;;;-2.55;78.52
43503;BME280;29098;48.184;16.298;2023-02-08T09:16:22;101919.53;;;-2.49;78.73
43503;BME280;29098;48.184;16.298;2023-02-08T09:18:48;101925.47;;;-2.45;78.20
43503;BME280;29098;48.184;16.298;2023-02-08T09:21:15;101926.31;;;-2.44;78.48
43503;BME280;29098;48.184;16.298;2023-02-08T09:23:40;101918.19;;;-2.27;78.71
43503;BME280;29098;48.184;16.298;2023-02-08T09:26:07;101917.13;;;-2.18;77.33
43503;BME280;29098;48.184;16.298;2023-02-08T09:28:32;101923.03;;;-2.13;77.63
43503;BME280;29098;48.184;16.298;2023-02-08T09:30:58;101926.91;;;-1.94;77.43
43503;BME280;29098;48.184;16.298;2023-02-08T09:33:26;101925.13;;;-1.91;76.98
43503;BME280;29098;48.184;16.298;2023-02-08T09:35:51;101926.66;;;-1.83;77.33
43503;BME280;29098;48.184;16.298;2023-02-08T09:38:16;101933.44;;;-1.79;77.00
43503;BME280;29098;48.184;16.298;2023-02-08T09:43:09;101931.50;;;-1.70;77.94
43503;BME280;29098;48.184;16.298;2023-02-08T09:45:38;101929.53;;;-1.60;76.88
43503;BME280;29098;48.184;16.298;2023-02-08T09:48:19;101931.94;;;-1.53;77.04
43503;BME280;29098;48.184;16.298;2023-02-08T09:50:51;101922.19;;;-1.43;75.39
43503;BME280;29098;48.184;16.298;2023-02-08T09:55:44;101922.81;;;-1.01;78.51
43503;BME280;29098;48.184;16.298;2023-02-08T10:00:43;101942.47;;;-1.27;75.97
43503;BME280;29098;48.184;16.298;2023-02-08T10:03:26;101941.66;;;-1.28;75.29
43503;BME280;29098;48.184;16.298;2023-02-08T10:05:53;101936.91;;;-1.45;75.53
43503;BME280;29098;48.184;16.298;2023-02-08T10:08:18;101934.53;;;-1.53;76.17
43503;BME280;29098;48.184;16.298;2023-02-08T10:10:54;101946.38;;;-1.44;75.78
43503;BME280;29098;48.184;16.298;2023-02-08T10:26:41;101943.91;;;-1.48;76.35
43503;BME280;29098;48.184;16.298;2023-02-08T10:37:13;101938.25;;;-1.30;73.97
43503;BME280;29098;48.184;16.298;2023-02-08T10:39:39;101935.47;;;-1.22;73.43
43503;BME280;29098;48.184;16.298;2023-02-08T10:42:09;101936.84;;;-1.42;73.62
43503;BME280;29098;48.184;16.298;2023-02-08T10:47:29;101932.59;;;-1.11;73.69
43503;BME280;29098;48.184;16.298;2023-02-08T10:52:26;101941.72;;;-0.98;73.03
43503;BME280;29098;48.184;16.298;2023-02-08T10:54:51;101932.66;;;-0.83;72.24
43503;BME280;29098;48.184;16.298;2023-02-08T10:57:17;101934.63;;;-0.91;71.91
43503;BME280;29098;48.184;16.298;2023-02-08T10:59:57;101933.13;;;-0.68;72.30
43503;BME280;29098;48.184;16.298;2023-02-08T11:02:25;101935.19;;;-0.49;71.16
43503;BME280;29098;48.184;16.298;2023-02-08T11:04:58;101940.72;;;-0.32;70.66
43503;BME280;29098;48.184;16.298;2023-02-08T11:07:23;101938.28;;;-0.38;69.88
43503;BME280;29098;48.184;16.298;2023-02-08T11:09:49;101940.41;;;-0.22;69.44
43503;BME280;29098;48.184;16.298;2023-02-08T11:12:18;101932.63;;;-0.22;67.88
43503;BME280;29098;48.184;16.298;2023-02-08T11:14:46;101931.09;;;-0.01;67.01
43503;BME280;29098;48.184;16.298;2023-02-08T11:17:31;101931.28;;;0.21;66.43
43503;BME280;29098;48.184;16.298;2023-02-08T11:19:58;101927.66;;;0.78;64.75
43503;BME280;29098;48.184;16.298;2023-02-08T11:22:24;101936.22;;;1.29;62.96
43503;BME280;29098;48.184;16.298;2023-02-08T11:24:55;101932.41;;;1.62;61.00
43503;BME280;29098;48.184;16.298;2023-02-08T11:32:36;101924.56;;;2.70;56.50
43503;BME280;29098;48.184;16.298;2023-02-08T11:37:49;101917.75;;;2.87;53.54
43503;BME280;29098;48.184;16.298;2023-02-08T11:40:17;101922.28;;;3.79;52.58
43503;BME280;29098;48.184;16.298;2023-02-08T11:42:44;101908.75;;;3.71;50.92
43503;BME280;29098;48.184;16.298;2023-02-08T11:45:26;101911.66;;;4.02;49.71
43503;BME280;29098;48.184;16.298;2023-02-08T11:47:53;101915.09;;;3.84;50.96
43503;BME280;29098;48.184;16.298;2023-02-08T11:52:54;101898.03;;;3.77;49.77
43503;BME280;29098;48.184;16.298;2023-02-08T11:55:24;101898.63;;;3.07;50.96
43503;BME280;29098;48.184;16.298;2023-02-08T11:57:57;101902.38;;;3.77;50.05
43503;BME280;29098;48.184;16.298;2023-02-08T12:00:24;101898.81;;;4.68;48.79
43503;BME280;29098;48.184;16.298;2023-02-08T12:02:50;101894.31;;;5.19;45.76
43503;BME280;29098;48.184;16.298;2023-02-08T12:05:21;101897.28;;;5.13;44.94
43503;BME280;29098;48.184;16.298;2023-02-08T12:12:53;101884.38;;;4.43;46.01
43503;BME280;29098;48.184;16.298;2023-02-08T12:15:37;101876.41;;;4.96;48.20
43503;BME280;29098;48.184;16.298;2023-02-08T12:18:22;101875.97;;;5.37;43.84
43503;BME280;29098;48.184;16.298;2023-02-08T12:20:56;101874.91;;;5.56;44.06
43503;BME280;29098;48.184;16.298;2023-02-08T12:26:07;101869.28;;;5.15;44.05
43503;BME280;29098;48.184;16.298;2023-02-08T12:39:04;101851.34;;;4.59;44.37
43503;BME280;29098;48.184;16.298;2023-02-08T12:41:52;101842.88;;;5.04;43.94
43503;BME280;29098;48.184;16.298;2023-02-08T12:49:47;101840.97;;;6.61;41.60
43503;BME280;29098;48.184;16.298;2023-02-08T12:52:24;101840.97;;;6.75;40.74
43503;BME280;29098;48.184;16.298;2023-02-08T12:54:57;101831.69;;;6.69;40.50
43503;BME280;29098;48.184;16.298;2023-02-08T12:57:25;101837.41;;;6.91;40.01
43503;BME280;29098;48.184;16.298;2023-02-08T12:59:59;101830.00;;;6.68;39.86
43503;BME280;29098;48.184;16.298;2023-02-08T13:04:54;101827.03;;;7.17;39.70
43503;BME280;29098;48.184;16.298;2023-02-08T13:07:28;101831.38;;;7.03;39.98
43503;BME280;29098;48.184;16.298;2023-02-08T13:12:43;101820.38;;;6.25;41.60
43503;BME280;29098;48.184;16.298;2023-02-08T13:22:53;101810.91;;;7.23;39.08
43503;BME280;29098;48.184;16.298;2023-02-08T13:25:28;101799.16;;;5.99;40.74
43503;BME280;29098;48.184;16.298;2023-02-08T13:27:54;101804.75;;;5.32;41.76
43503;BME280;29098;48.184;16.298;2023-02-08T13:30:19;101811.50;;;5.04;43.09
43503;BME280;29098;48.184;16.298;2023-02-08T13:32:46;101808.06;;;5.66;42.04
43503;BME280;29098;48.184;16.298;2023-02-08T13:35:27;101804.22;;;5.41;42.61
43503;BME280;29098;48.184;16.298;2023-02-08T13:40:44;101795.69;;;6.29;42.11
43503;BME280;29098;48.184;16.298;2023-02-08T13:43:28;101801.38;;;6.65;40.88
43503;BME280;29098;48.184;16.298;2023-02-08T13:45:55;101805.41;;;7.40;38.20
43503;BME280;29098;48.184;16.298;2023-02-08T13:48:23;101796.19;;;7.48;38.43
43503;BME280;29098;48.184;16.298;2023-02-08T13:50:49;101789.63;;;7.81;37.71
43503;BME280;29098;48.184;16.298;2023-02-08T13:53:16;101795.03;;;8.05;36.72
43503;BME280;29098;48.184;16.298;2023-02-08T14:03:22;101793.50;;;7.22;36.82
43503;BME280;29098;48.184;16.298;2023-02-08T14:05:55;101786.59;;;6.21;38.95
43503;BME280;29098;48.184;16.298;2023-02-08T14:08:27;101782.50;;;5.86;40.35
43503;BME280;29098;48.184;16.298;2023-02-08T14:13:39;101782.63;;;3.90;44.17
43503;BME280;29098;48.184;16.298;2023-02-08T14:18:57;101768.16;;;3.29;45.42
43503;BME280;29098;48.184;16.298;2023-02-08T14:23:58;101775.38;;;2.67;47.69
43503;BME280;29098;48.184;16.298;2023-02-08T14:26:24;101770.47;;;2.80;47.25
43503;BME280;29098;48.184;16.298;2023-02-08T14:28:54;101776.75;;;2.76;47.01
43503;BME280;29098;48.184;16.298;2023-02-08T14:31:21;101772.13;;;2.42;48.24
43503;BME280;29098;48.184;16.298;2023-02-08T14:33:52;101776.06;;;2.32;48.83
43503;BME280;29098;48.184;16.298;2023-02-08T14:36:27;101771.13;;;2.26;48.72
43503;BME280;29098;48.184;16.298;2023-02-08T14:46:53;101775.34;;;2.28;49.55
43503;BME280;29098;48.184;16.298;2023-02-08T14:49:18;101784.56;;;2.76;48.21
43503;BME280;29098;48.184;16.298;2023-02-08T14:51:54;101788.44;;;2.46;48.86
43503;BME280;29098;48.184;16.298;2023-02-08T14:54:23;101789.88;;;2.72;48.94
43503;BME280;29098;48.184;16.298;2023-02-08T14:57:01;101781.44;;;2.48;49.32
43503;BME280;29098;48.184;16.298;2023-02-08T14:59:32;101785.53;;;2.54;49.29
43503;BME280;29098;48.184;16.298;2023-02-08T15:01:59;101783.09;;;2.30;49.60
43503;BME280;29098;48.184;16.298;2023-02-08T15:04:25;101786.03;;;2.62;49.07
43503;BME280;29098;48.184;16.298;2023-02-08T15:09:24;101789.22;;;2.29;50.06
43503;BME280;29098;48.184;16.298;2023-02-08T15:12:36;101788.50;;;2.04;50.81